Lindsay, Oklahoma
Current Conditions -  °F | °C
As of 11:35 PM on Sunday 19 Oct 2014 (Local Time) from KPVJ Reporting Station
Clear Clear  
Wind Chill: 61°   Ceiling: Unl
Heat Index: 61°   Visibility: 10mi
Dew Point: 51°   Wind: 0mph
Humidity: 71%   Direction: NA
Pressure: 30.06"   Gusts: NA
Location:  34.83°N, 97.6°W
Report Text: KPVJ 200435Z AUTO 00000KT 10SM CLR 16/11 A3006 RMK AO2 T01610108
Loading
Personal Weather Stations






























Interactive Weather Map
Tropical Storm Tracking
New forecast layout! Learn more

10-Day Weather Forecast

Advertisements
Track Severe Weather on mobile